sensor_id;sensor_type;location;lat;lon;timestamp;P1;durP1;ratioP1;P2;durP2;ratioP2
17173;SDS011;8702;48.130;-1.696;2023-04-06T00:01:44;22.80;;;18.50;;
17173;SDS011;8702;48.130;-1.696;2023-04-06T00:04:11;24.33;;;20.60;;
17173;SDS011;8702;48.130;-1.696;2023-04-06T00:06:40;22.73;;;20.37;;
17173;SDS011;8702;48.130;-1.696;2023-04-06T00:09:07;22.20;;;18.40;;
17173;SDS011;8702;48.130;-1.696;2023-04-06T00:11:34;20.73;;;18.60;;
17173;SDS011;8702;48.130;-1.696;2023-04-06T00:14:01;21.67;;;19.37;;
17173;SDS011;8702;48.130;-1.696;2023-04-06T00:16:28;23.90;;;20.23;;
17173;SDS011;8702;48.130;-1.696;2023-04-06T00:18:55;21.67;;;19.43;;
17173;SDS011;8702;48.130;-1.696;2023-04-06T00:21:22;22.00;;;19.63;;
17173;SDS011;8702;48.130;-1.696;2023-04-06T00:23:52;21.27;;;19.03;;
17173;SDS011;8702;48.130;-1.696;2023-04-06T00:26:19;22.60;;;20.17;;
17173;SDS011;8702;48.130;-1.696;2023-04-06T00:28:46;21.33;;;19.07;;
17173;SDS011;8702;48.130;-1.696;2023-04-06T00:31:15;23.07;;;19.83;;
17173;SDS011;8702;48.130;-1.696;2023-04-06T00:33:42;22.27;;;19.97;;
17173;SDS011;8702;48.130;-1.696;2023-04-06T00:36:09;21.60;;;19.27;;
17173;SDS011;8702;48.130;-1.696;2023-04-06T00:38:36;22.10;;;19.60;;
17173;SDS011;8702;48.130;-1.696;2023-04-06T00:41:05;22.80;;;20.40;;
17173;SDS011;8702;48.130;-1.696;2023-04-06T00:43:32;23.60;;;21.20;;
17173;SDS011;8702;48.130;-1.696;2023-04-06T00:45:59;21.50;;;19.40;;
17173;SDS011;8702;48.130;-1.696;2023-04-06T00:48:26;22.63;;;20.23;;
17173;SDS011;8702;48.130;-1.696;2023-04-06T00:50:55;22.63;;;20.43;;
17173;SDS011;8702;48.130;-1.696;2023-04-06T00:53:22;25.10;;;21.00;;
17173;SDS011;8702;48.130;-1.696;2023-04-06T00:55:49;23.20;;;20.70;;
17173;SDS011;8702;48.130;-1.696;2023-04-06T00:58:17;22.23;;;19.93;;
17173;SDS011;8702;48.130;-1.696;2023-04-06T01:00:44;24.03;;;20.83;;
17173;SDS011;8702;48.130;-1.696;2023-04-06T01:03:12;22.70;;;19.67;;
17173;SDS011;8702;48.130;-1.696;2023-04-06T01:05:39;21.67;;;19.43;;
17173;SDS011;8702;48.130;-1.696;2023-04-06T01:08:07;21.47;;;19.10;;
17173;SDS011;8702;48.130;-1.696;2023-04-06T01:10:34;22.70;;;20.27;;
17173;SDS011;8702;48.130;-1.696;2023-04-06T01:13:01;22.80;;;20.50;;
17173;SDS011;8702;48.130;-1.696;2023-04-06T01:15:30;21.43;;;19.17;;
17173;SDS011;8702;48.130;-1.696;2023-04-06T01:18:00;22.10;;;20.00;;
17173;SDS011;8702;48.130;-1.696;2023-04-06T01:20:27;22.37;;;20.00;;
17173;SDS011;8702;48.130;-1.696;2023-04-06T01:22:56;20.80;;;18.47;;
17173;SDS011;8702;48.130;-1.696;2023-04-06T01:25:24;22.70;;;20.30;;
17173;SDS011;8702;48.130;-1.696;2023-04-06T01:27:51;21.87;;;19.67;;
17173;SDS011;8702;48.130;-1.696;2023-04-06T01:30:18;22.20;;;19.43;;
17173;SDS011;8702;48.130;-1.696;2023-04-06T01:32:45;20.97;;;18.80;;
17173;SDS011;8702;48.130;-1.696;2023-04-06T01:35:12;20.87;;;18.77;;
17173;SDS011;8702;48.130;-1.696;2023-04-06T01:37:39;22.00;;;18.93;;
17173;SDS011;8702;48.130;-1.696;2023-04-06T01:40:08;21.43;;;19.07;;
17173;SDS011;8702;48.130;-1.696;2023-04-06T01:42:36;21.43;;;18.87;;
17173;SDS011;8702;48.130;-1.696;2023-04-06T01:45:04;21.23;;;18.97;;
17173;SDS011;8702;48.130;-1.696;2023-04-06T01:47:31;21.67;;;19.47;;
17173;SDS011;8702;48.130;-1.696;2023-04-06T01:49:58;21.03;;;18.97;;
17173;SDS011;8702;48.130;-1.696;2023-04-06T01:52:26;23.57;;;20.73;;
17173;SDS011;8702;48.130;-1.696;2023-04-06T01:54:55;21.77;;;19.47;;
17173;SDS011;8702;48.130;-1.696;2023-04-06T01:57:24;21.43;;;19.07;;
17173;SDS011;8702;48.130;-1.696;2023-04-06T01:59:51;22.40;;;20.00;;
17173;SDS011;8702;48.130;-1.696;2023-04-06T02:02:18;21.00;;;18.90;;
17173;SDS011;8702;48.130;-1.696;2023-04-06T02:04:45;21.63;;;19.33;;
17173;SDS011;8702;48.130;-1.696;2023-04-06T02:07:12;21.67;;;19.57;;
17173;SDS011;8702;48.130;-1.696;2023-04-06T02:09:40;22.73;;;20.37;;
17173;SDS011;8702;48.130;-1.696;2023-04-06T02:12:07;21.63;;;19.40;;
17173;SDS011;8702;48.130;-1.696;2023-04-06T02:14:35;21.83;;;19.60;;
17173;SDS011;8702;48.130;-1.696;2023-04-06T02:17:02;21.73;;;19.47;;
17173;SDS011;8702;48.130;-1.696;2023-04-06T02:19:29;21.37;;;19.03;;
17173;SDS011;8702;48.130;-1.696;2023-04-06T02:21:56;20.57;;;18.57;;
17173;SDS011;8702;48.130;-1.696;2023-04-06T02:24:24;21.47;;;19.27;;
17173;SDS011;8702;48.130;-1.696;2023-04-06T02:26:51;20.90;;;18.80;;
17173;SDS011;8702;48.130;-1.696;2023-04-06T02:29:18;22.97;;;19.07;;
17173;SDS011;8702;48.130;-1.696;2023-04-06T02:31:46;19.70;;;17.60;;
17173;SDS011;8702;48.130;-1.696;2023-04-06T02:34:13;19.77;;;17.77;;
17173;SDS011;8702;48.130;-1.696;2023-04-06T02:36:42;19.17;;;17.37;;
17173;SDS011;8702;48.130;-1.696;2023-04-06T02:39:10;20.83;;;17.63;;
17173;SDS011;8702;48.130;-1.696;2023-04-06T02:41:37;20.00;;;17.03;;
17173;SDS011;8702;48.130;-1.696;2023-04-06T02:44:05;18.70;;;16.87;;
17173;SDS011;8702;48.130;-1.696;2023-04-06T02:46:33;22.97;;;17.40;;
17173;SDS011;8702;48.130;-1.696;2023-04-06T02:49:03;18.47;;;16.43;;
17173;SDS011;8702;48.130;-1.696;2023-04-06T02:51:30;17.60;;;15.90;;
17173;SDS011;8702;48.130;-1.696;2023-04-06T02:53:58;17.27;;;15.07;;
17173;SDS011;8702;48.130;-1.696;2023-04-06T02:56:25;18.50;;;15.00;;
17173;SDS011;8702;48.130;-1.696;2023-04-06T02:58:52;15.63;;;14.03;;
17173;SDS011;8702;48.130;-1.696;2023-04-06T03:01:19;15.87;;;14.37;;
17173;SDS011;8702;48.130;-1.696;2023-04-06T03:03:46;16.37;;;14.70;;
17173;SDS011;8702;48.130;-1.696;2023-04-06T03:06:15;15.40;;;13.37;;
17173;SDS011;8702;48.130;-1.696;2023-04-06T03:08:42;14.87;;;13.37;;
17173;SDS011;8702;48.130;-1.696;2023-04-06T03:11:09;15.73;;;13.73;;
17173;SDS011;8702;48.130;-1.696;2023-04-06T03:13:36;15.47;;;12.93;;
17173;SDS011;8702;48.130;-1.696;2023-04-06T03:16:04;15.43;;;12.90;;
17173;SDS011;8702;48.130;-1.696;2023-04-06T03:18:32;14.47;;;12.90;;
17173;SDS011;8702;48.130;-1.696;2023-04-06T03:20:59;14.07;;;12.60;;
17173;SDS011;8702;48.130;-1.696;2023-04-06T03:23:27;13.53;;;12.13;;
17173;SDS011;8702;48.130;-1.696;2023-04-06T03:25:54;13.00;;;11.67;;
17173;SDS011;8702;48.130;-1.696;2023-04-06T03:28:21;17.43;;;12.87;;
17173;SDS011;8702;48.130;-1.696;2023-04-06T03:30:49;12.73;;;11.43;;
17173;SDS011;8702;48.130;-1.696;2023-04-06T03:33:16;14.07;;;12.67;;
17173;SDS011;8702;48.130;-1.696;2023-04-06T03:35:43;12.47;;;11.27;;
17173;SDS011;8702;48.130;-1.696;2023-04-06T03:38:10;12.53;;;11.20;;
17173;SDS011;8702;48.130;-1.696;2023-04-06T03:40:38;13.97;;;11.70;;
17173;SDS011;8702;48.130;-1.696;2023-04-06T03:43:05;13.93;;;11.50;;
17173;SDS011;8702;48.130;-1.696;2023-04-06T03:45:32;12.37;;;10.50;;
17173;SDS011;8702;48.130;-1.696;2023-04-06T03:47:59;12.57;;;11.27;;
17173;SDS011;8702;48.130;-1.696;2023-04-06T03:50:26;12.23;;;11.03;;
17173;SDS011;8702;48.130;-1.696;2023-04-06T03:52:53;12.33;;;10.47;;
17173;SDS011;8702;48.130;-1.696;2023-04-06T03:55:20;12.17;;;10.27;;
17173;SDS011;8702;48.130;-1.696;2023-04-06T03:57:49;13.60;;;9.67;;
17173;SDS011;8702;48.130;-1.696;2023-04-06T04:00:16;10.90;;;9.80;;
17173;SDS011;8702;48.130;-1.696;2023-04-06T04:02:43;13.70;;;9.93;;
17173;SDS011;8702;48.130;-1.696;2023-04-06T04:05:10;12.87;;;9.80;;
17173;SDS011;8702;48.130;-1.696;2023-04-06T04:07:37;10.37;;;9.13;;
17173;SDS011;8702;48.130;-1.696;2023-04-06T04:10:05;10.03;;;9.03;;
17173;SDS011;8702;48.130;-1.696;2023-04-06T04:12:32;9.90;;;8.90;;
17173;SDS011;8702;48.130;-1.696;2023-04-06T04:15:01;10.20;;;9.13;;
17173;SDS011;8702;48.130;-1.696;2023-04-06T04:17:28;10.43;;;8.80;;
17173;SDS011;8702;48.130;-1.696;2023-04-06T04:19:55;10.03;;;9.00;;
17173;SDS011;8702;48.130;-1.696;2023-04-06T04:22:22;9.20;;;8.30;;
17173;SDS011;8702;48.130;-1.696;2023-04-06T04:24:49;12.03;;;9.10;;
17173;SDS011;8702;48.130;-1.696;2023-04-06T04:27:16;11.47;;;9.13;;
17173;SDS011;8702;48.130;-1.696;2023-04-06T04:29:44;11.53;;;9.30;;
17173;SDS011;8702;48.130;-1.696;2023-04-06T04:32:12;12.00;;;8.87;;
17173;SDS011;8702;48.130;-1.696;2023-04-06T04:34:39;10.37;;;9.27;;
17173;SDS011;8702;48.130;-1.696;2023-04-06T04:37:06;10.13;;;8.80;;
17173;SDS011;8702;48.130;-1.696;2023-04-06T04:39:33;11.03;;;8.20;;
17173;SDS011;8702;48.130;-1.696;2023-04-06T04:42:01;10.90;;;8.40;;
17173;SDS011;8702;48.130;-1.696;2023-04-06T04:44:28;9.07;;;8.00;;
17173;SDS011;8702;48.130;-1.696;2023-04-06T04:46:55;9.63;;;8.13;;
17173;SDS011;8702;48.130;-1.696;2023-04-06T04:49:23;9.43;;;8.30;;
17173;SDS011;8702;48.130;-1.696;2023-04-06T04:51:50;12.27;;;8.70;;
17173;SDS011;8702;48.130;-1.696;2023-04-06T04:54:17;9.20;;;8.27;;
17173;SDS011;8702;48.130;-1.696;2023-04-06T04:56:45;10.50;;;8.50;;
17173;SDS011;8702;48.130;-1.696;2023-04-06T04:59:12;10.10;;;8.50;;
17173;SDS011;8702;48.130;-1.696;2023-04-06T05:01:39;8.93;;;8.03;;
17173;SDS011;8702;48.130;-1.696;2023-04-06T05:04:06;10.23;;;8.47;;
17173;SDS011;8702;48.130;-1.696;2023-04-06T05:06:35;11.27;;;8.00;;
17173;SDS011;8702;48.130;-1.696;2023-04-06T05:09:02;10.17;;;8.27;;
17173;SDS011;8702;48.130;-1.696;2023-04-06T05:11:29;8.37;;;7.63;;
17173;SDS011;8702;48.130;-1.696;2023-04-06T05:13:56;9.20;;;7.33;;
17173;SDS011;8702;48.130;-1.696;2023-04-06T05:16:23;8.40;;;7.50;;
17173;SDS011;8702;48.130;-1.696;2023-04-06T05:18:50;9.33;;;7.40;;
17173;SDS011;8702;48.130;-1.696;2023-04-06T05:21:18;9.67;;;7.90;;
17173;SDS011;8702;48.130;-1.696;2023-04-06T05:23:46;8.57;;;7.77;;
17173;SDS011;8702;48.130;-1.696;2023-04-06T05:26:13;11.10;;;7.67;;
17173;SDS011;8702;48.130;-1.696;2023-04-06T05:28:41;8.73;;;7.80;;
17173;SDS011;8702;48.130;-1.696;2023-04-06T05:31:09;8.30;;;7.47;;
17173;SDS011;8702;48.130;-1.696;2023-04-06T05:33:36;9.00;;;7.90;;
17173;SDS011;8702;48.130;-1.696;2023-04-06T05:36:03;9.07;;;8.13;;
17173;SDS011;8702;48.130;-1.696;2023-04-06T05:38:32;10.43;;;8.43;;
17173;SDS011;8702;48.130;-1.696;2023-04-06T05:41:00;9.57;;;7.43;;
17173;SDS011;8702;48.130;-1.696;2023-04-06T05:43:28;8.40;;;7.50;;
17173;SDS011;8702;48.130;-1.696;2023-04-06T05:45:55;9.10;;;8.10;;
17173;SDS011;8702;48.130;-1.696;2023-04-06T05:48:22;8.90;;;7.57;;
17173;SDS011;8702;48.130;-1.696;2023-04-06T05:50:49;9.40;;;7.73;;
17173;SDS011;8702;48.130;-1.696;2023-04-06T05:53:16;8.83;;;7.93;;
17173;SDS011;8702;48.130;-1.696;2023-04-06T05:55:43;9.20;;;8.23;;
17173;SDS011;8702;48.130;-1.696;2023-04-06T05:58:12;14.17;;;9.00;;
17173;SDS011;8702;48.130;-1.696;2023-04-06T06:00:39;12.67;;;7.73;;
17173;SDS011;8702;48.130;-1.696;2023-04-06T06:03:07;8.67;;;7.77;;
17173;SDS011;8702;48.130;-1.696;2023-04-06T06:05:34;11.87;;;7.60;;
17173;SDS011;8702;48.130;-1.696;2023-04-06T06:08:01;9.77;;;7.57;;
17173;SDS011;8702;48.130;-1.696;2023-04-06T06:10:28;11.03;;;8.20;;
17173;SDS011;8702;48.130;-1.696;2023-04-06T06:12:55;9.30;;;7.90;;
17173;SDS011;8702;48.130;-1.696;2023-04-06T06:15:24;9.40;;;7.50;;
17173;SDS011;8702;48.130;-1.696;2023-04-06T06:17:51;10.23;;;7.50;;
17173;SDS011;8702;48.130;-1.696;2023-04-06T06:20:18;9.57;;;7.73;;
17173;SDS011;8702;48.130;-1.696;2023-04-06T06:22:45;9.77;;;7.60;;
17173;SDS011;8702;48.130;-1.696;2023-04-06T06:25:12;9.57;;;7.20;;
17173;SDS011;8702;48.130;-1.696;2023-04-06T06:27:40;8.33;;;7.23;;
17173;SDS011;8702;48.130;-1.696;2023-04-06T06:30:08;10.43;;;7.20;;
17173;SDS011;8702;48.130;-1.696;2023-04-06T06:32:37;8.03;;;7.00;;
17173;SDS011;8702;48.130;-1.696;2023-04-06T06:35:04;8.90;;;7.67;;
17173;SDS011;8702;48.130;-1.696;2023-04-06T06:37:31;7.60;;;6.20;;
17173;SDS011;8702;48.130;-1.696;2023-04-06T06:39:58;7.60;;;6.90;;
17173;SDS011;8702;48.130;-1.696;2023-04-06T06:42:26;8.10;;;7.30;;
17173;SDS011;8702;48.130;-1.696;2023-04-06T06:44:53;8.00;;;6.60;;
17173;SDS011;8702;48.130;-1.696;2023-04-06T06:47:20;8.17;;;6.90;;
17173;SDS011;8702;48.130;-1.696;2023-04-06T06:49:49;8.30;;;6.80;;
17173;SDS011;8702;48.130;-1.696;2023-04-06T06:52:16;7.43;;;6.63;;
17173;SDS011;8702;48.130;-1.696;2023-04-06T06:54:43;10.33;;;6.87;;
17173;SDS011;8702;48.130;-1.696;2023-04-06T06:57:11;8.23;;;7.33;;
17173;SDS011;8702;48.130;-1.696;2023-04-06T06:59:38;10.50;;;6.93;;
17173;SDS011;8702;48.130;-1.696;2023-04-06T07:02:05;9.83;;;7.23;;
17173;SDS011;8702;48.130;-1.696;2023-04-06T07:04:32;8.37;;;6.90;;
17173;SDS011;8702;48.130;-1.696;2023-04-06T07:07:00;7.47;;;6.47;;
17173;SDS011;8702;48.130;-1.696;2023-04-06T07:09:28;8.40;;;7.17;;
17173;SDS011;8702;48.130;-1.696;2023-04-06T07:11:56;10.27;;;7.47;;
17173;SDS011;8702;48.130;-1.696;2023-04-06T07:14:23;16.30;;;7.07;;
17173;SDS011;8702;48.130;-1.696;2023-04-06T07:16:50;9.77;;;6.60;;
17173;SDS011;8702;48.130;-1.696;2023-04-06T07:19:17;9.00;;;6.87;;
17173;SDS011;8702;48.130;-1.696;2023-04-06T07:21:44;11.17;;;6.77;;
17173;SDS011;8702;48.130;-1.696;2023-04-06T07:24:12;12.57;;;7.43;;
17173;SDS011;8702;48.130;-1.696;2023-04-06T07:26:39;12.13;;;6.83;;
17173;SDS011;8702;48.130;-1.696;2023-04-06T07:29:06;9.10;;;6.77;;
17173;SDS011;8702;48.130;-1.696;2023-04-06T07:31:33;7.93;;;6.53;;
17173;SDS011;8702;48.130;-1.696;2023-04-06T07:34:01;9.27;;;7.07;;
17173;SDS011;8702;48.130;-1.696;2023-04-06T07:36:28;12.07;;;6.97;;
17173;SDS011;8702;48.130;-1.696;2023-04-06T07:38:55;9.07;;;7.20;;
17173;SDS011;8702;48.130;-1.696;2023-04-06T07:41:24;9.63;;;6.73;;
17173;SDS011;8702;48.130;-1.696;2023-04-06T07:43:51;7.50;;;6.50;;
17173;SDS011;8702;48.130;-1.696;2023-04-06T07:46:18;8.67;;;6.60;;
17173;SDS011;8702;48.130;-1.696;2023-04-06T07:48:45;10.57;;;6.77;;
17173;SDS011;8702;48.130;-1.696;2023-04-06T07:51:12;10.53;;;7.00;;
17173;SDS011;8702;48.130;-1.696;2023-04-06T07:53:40;8.57;;;7.00;;
17173;SDS011;8702;48.130;-1.696;2023-04-06T07:56:07;9.30;;;7.23;;
17173;SDS011;8702;48.130;-1.696;2023-04-06T07:58:35;8.30;;;6.30;;
17173;SDS011;8702;48.130;-1.696;2023-04-06T08:01:02;11.67;;;6.13;;
17173;SDS011;8702;48.130;-1.696;2023-04-06T08:03:29;8.27;;;6.77;;
17173;SDS011;8702;48.130;-1.696;2023-04-06T08:05:58;10.57;;;6.80;;
17173;SDS011;8702;48.130;-1.696;2023-04-06T08:08:25;10.93;;;6.90;;
17173;SDS011;8702;48.130;-1.696;2023-04-06T08:10:52;10.90;;;6.90;;
17173;SDS011;8702;48.130;-1.696;2023-04-06T08:13:19;10.40;;;6.37;;
17173;SDS011;8702;48.130;-1.696;2023-04-06T08:15:48;8.63;;;5.90;;
17173;SDS011;8702;48.130;-1.696;2023-04-06T08:18:15;9.47;;;6.10;;
17173;SDS011;8702;48.130;-1.696;2023-04-06T08:20:42;10.13;;;5.67;;
17173;SDS011;8702;48.130;-1.696;2023-04-06T08:23:09;10.43;;;5.90;;
17173;SDS011;8702;48.130;-1.696;2023-04-06T08:25:36;7.27;;;6.00;;
17173;SDS011;8702;48.130;-1.696;2023-04-06T08:28:04;7.47;;;5.13;;
17173;SDS011;8702;48.130;-1.696;2023-04-06T08:30:31;8.87;;;5.57;;
17173;SDS011;8702;48.130;-1.696;2023-04-06T08:33:00;7.13;;;4.90;;
17173;SDS011;8702;48.130;-1.696;2023-04-06T08:35:27;8.60;;;5.73;;
17173;SDS011;8702;48.130;-1.696;2023-04-06T08:37:54;5.80;;;5.17;;
17173;SDS011;8702;48.130;-1.696;2023-04-06T08:40:21;10.63;;;5.70;;
17173;SDS011;8702;48.130;-1.696;2023-04-06T08:42:52;6.53;;;5.13;;
17173;SDS011;8702;48.130;-1.696;2023-04-06T08:45:21;7.53;;;5.03;;
17173;SDS011;8702;48.130;-1.696;2023-04-06T08:47:49;7.23;;;5.80;;
17173;SDS011;8702;48.130;-1.696;2023-04-06T08:50:21;6.63;;;5.60;;
17173;SDS011;8702;48.130;-1.696;2023-04-06T08:52:48;8.13;;;5.77;;
17173;SDS011;8702;48.130;-1.696;2023-04-06T08:55:15;6.50;;;5.10;;
17173;SDS011;8702;48.130;-1.696;2023-04-06T08:57:43;13.30;;;5.43;;
17173;SDS011;8702;48.130;-1.696;2023-04-06T09:00:12;13.70;;;5.50;;
17173;SDS011;8702;48.130;-1.696;2023-04-06T09:02:41;11.77;;;5.03;;
17173;SDS011;8702;48.130;-1.696;2023-04-06T09:05:11;9.40;;;4.87;;
17173;SDS011;8702;48.130;-1.696;2023-04-06T09:07:40;7.37;;;4.80;;
17173;SDS011;8702;48.130;-1.696;2023-04-06T09:10:07;5.83;;;4.33;;
17173;SDS011;8702;48.130;-1.696;2023-04-06T09:12:35;5.20;;;4.53;;
17173;SDS011;8702;48.130;-1.696;2023-04-06T09:15:02;6.43;;;3.87;;
17173;SDS011;8702;48.130;-1.696;2023-04-06T09:17:30;5.80;;;4.50;;
17173;SDS011;8702;48.130;-1.696;2023-04-06T09:19:59;6.43;;;4.40;;
17173;SDS011;8702;48.130;-1.696;2023-04-06T09:22:34;5.40;;;4.50;;
17173;SDS011;8702;48.130;-1.696;2023-04-06T09:25:04;5.87;;;5.07;;
17173;SDS011;8702;48.130;-1.696;2023-04-06T09:27:32;7.83;;;5.00;;
17173;SDS011;8702;48.130;-1.696;2023-04-06T09:30:05;6.17;;;5.03;;
17173;SDS011;8702;48.130;-1.696;2023-04-06T09:32:45;5.90;;;4.03;;
17173;SDS011;8702;48.130;-1.696;2023-04-06T09:35:14;6.13;;;3.93;;
17173;SDS011;8702;48.130;-1.696;2023-04-06T09:37:41;5.63;;;4.27;;
17173;SDS011;8702;48.130;-1.696;2023-04-06T09:40:10;5.43;;;4.70;;
17173;SDS011;8702;48.130;-1.696;2023-04-06T09:42:40;4.77;;;3.83;;
17173;SDS011;8702;48.130;-1.696;2023-04-06T09:45:08;5.17;;;4.27;;
17173;SDS011;8702;48.130;-1.696;2023-04-06T09:47:36;4.50;;;4.07;;
17173;SDS011;8702;48.130;-1.696;2023-04-06T09:50:05;4.47;;;4.07;;
17173;SDS011;8702;48.130;-1.696;2023-04-06T09:52:37;4.30;;;3.90;;
17173;SDS011;8702;48.130;-1.696;2023-04-06T09:55:07;4.97;;;4.00;;
17173;SDS011;8702;48.130;-1.696;2023-04-06T09:57:37;5.07;;;3.93;;
17173;SDS011;8702;48.130;-1.696;2023-04-06T10:00:11;4.30;;;3.77;;
17173;SDS011;8702;48.130;-1.696;2023-04-06T10:02:44;5.27;;;3.70;;
17173;SDS011;8702;48.130;-1.696;2023-04-06T10:05:15;4.93;;;4.13;;
17173;SDS011;8702;48.130;-1.696;2023-04-06T10:07:46;4.30;;;3.83;;
17173;SDS011;8702;48.130;-1.696;2023-04-06T10:10:15;5.27;;;3.43;;
17173;SDS011;8702;48.130;-1.696;2023-04-06T10:12:44;4.23;;;3.83;;
17173;SDS011;8702;48.130;-1.696;2023-04-06T10:15:14;4.70;;;3.43;;
17173;SDS011;8702;48.130;-1.696;2023-04-06T10:17:41;3.50;;;3.20;;
17173;SDS011;8702;48.130;-1.696;2023-04-06T10:20:09;3.83;;;3.53;;
17173;SDS011;8702;48.130;-1.696;2023-04-06T10:22:41;3.83;;;3.43;;
17173;SDS011;8702;48.130;-1.696;2023-04-06T10:25:15;4.07;;;3.67;;
17173;SDS011;8702;48.130;-1.696;2023-04-06T10:27:44;3.50;;;3.20;;
17173;SDS011;8702;48.130;-1.696;2023-04-06T10:30:11;4.00;;;3.30;;
17173;SDS011;8702;48.130;-1.696;2023-04-06T10:32:42;3.17;;;2.97;;
17173;SDS011;8702;48.130;-1.696;2023-04-06T10:35:09;3.20;;;2.90;;
17173;SDS011;8702;48.130;-1.696;2023-04-06T10:37:49;3.90;;;3.40;;
17173;SDS011;8702;48.130;-1.696;2023-04-06T10:40:18;3.10;;;2.37;;
17173;SDS011;8702;48.130;-1.696;2023-04-06T10:42:51;2.57;;;2.27;;
17173;SDS011;8702;48.130;-1.696;2023-04-06T10:45:19;4.10;;;2.73;;
17173;SDS011;8702;48.130;-1.696;2023-04-06T10:47:47;2.57;;;2.33;;
17173;SDS011;8702;48.130;-1.696;2023-04-06T10:50:14;3.60;;;2.43;;
17173;SDS011;8702;48.130;-1.696;2023-04-06T10:52:43;2.80;;;2.60;;
17173;SDS011;8702;48.130;-1.696;2023-04-06T10:55:10;2.43;;;2.10;;
17173;SDS011;8702;48.130;-1.696;2023-04-06T10:57:39;2.67;;;2.47;;
17173;SDS011;8702;48.130;-1.696;2023-04-06T11:00:08;3.37;;;2.50;;
17173;SDS011;8702;48.130;-1.696;2023-04-06T11:02:37;2.93;;;2.57;;
17173;SDS011;8702;48.130;-1.696;2023-04-06T11:05:05;3.50;;;2.50;;
17173;SDS011;8702;48.130;-1.696;2023-04-06T11:07:33;3.27;;;2.80;;
17173;SDS011;8702;48.130;-1.696;2023-04-06T11:10:00;2.60;;;2.40;;
17173;SDS011;8702;48.130;-1.696;2023-04-06T11:12:27;3.50;;;2.40;;
17173;SDS011;8702;48.130;-1.696;2023-04-06T11:14:56;3.33;;;2.50;;
17173;SDS011;8702;48.130;-1.696;2023-04-06T11:17:30;3.50;;;2.90;;
17173;SDS011;8702;48.130;-1.696;2023-04-06T11:19:58;5.63;;;2.97;;
17173;SDS011;8702;48.130;-1.696;2023-04-06T11:22:25;4.83;;;2.93;;
17173;SDS011;8702;48.130;-1.696;2023-04-06T11:24:53;5.30;;;2.90;;
17173;SDS011;8702;48.130;-1.696;2023-04-06T11:27:30;3.90;;;3.00;;
17173;SDS011;8702;48.130;-1.696;2023-04-06T11:29:58;4.03;;;2.73;;
17173;SDS011;8702;48.130;-1.696;2023-04-06T11:32:26;3.60;;;2.83;;
17173;SDS011;8702;48.130;-1.696;2023-04-06T11:34:57;5.07;;;3.07;;
17173;SDS011;8702;48.130;-1.696;2023-04-06T11:37:26;3.37;;;2.27;;
17173;SDS011;8702;48.130;-1.696;2023-04-06T11:39:54;3.33;;;2.50;;
17173;SDS011;8702;48.130;-1.696;2023-04-06T11:42:22;3.43;;;2.43;;
17173;SDS011;8702;48.130;-1.696;2023-04-06T11:44:50;3.43;;;2.37;;
17173;SDS011;8702;48.130;-1.696;2023-04-06T11:47:19;2.20;;;1.70;;
17173;SDS011;8702;48.130;-1.696;2023-04-06T11:49:53;2.50;;;1.80;;
17173;SDS011;8702;48.130;-1.696;2023-04-06T11:52:22;2.33;;;1.70;;
17173;SDS011;8702;48.130;-1.696;2023-04-06T11:54:50;5.33;;;1.80;;
17173;SDS011;8702;48.130;-1.696;2023-04-06T11:57:18;3.07;;;2.00;;
17173;SDS011;8702;48.130;-1.696;2023-04-06T11:59:46;2.70;;;2.00;;
17173;SDS011;8702;48.130;-1.696;2023-04-06T12:02:14;4.13;;;2.00;;
17173;SDS011;8702;48.130;-1.696;2023-04-06T12:04:41;3.47;;;2.00;;
17173;SDS011;8702;48.130;-1.696;2023-04-06T12:07:09;3.90;;;1.90;;
17173;SDS011;8702;48.130;-1.696;2023-04-06T12:09:36;7.30;;;2.10;;
17173;SDS011;8702;48.130;-1.696;2023-04-06T12:12:04;3.63;;;2.07;;
17173;SDS011;8702;48.130;-1.696;2023-04-06T12:14:31;4.67;;;1.87;;
17173;SDS011;8702;48.130;-1.696;2023-04-06T12:16:58;5.23;;;2.13;;
17173;SDS011;8702;48.130;-1.696;2023-04-06T12:19:25;5.20;;;1.83;;
17173;SDS011;8702;48.130;-1.696;2023-04-06T12:21:53;4.13;;;1.87;;
17173;SDS011;8702;48.130;-1.696;2023-04-06T12:24:21;3.43;;;1.80;;
17173;SDS011;8702;48.130;-1.696;2023-04-06T12:26:48;3.60;;;2.20;;
17173;SDS011;8702;48.130;-1.696;2023-04-06T12:29:15;3.80;;;2.23;;
17173;SDS011;8702;48.130;-1.696;2023-04-06T12:31:42;3.20;;;2.33;;
17173;SDS011;8702;48.130;-1.696;2023-04-06T12:34:10;3.40;;;1.93;;
17173;SDS011;8702;48.130;-1.696;2023-04-06T12:36:37;5.57;;;2.10;;
17173;SDS011;8702;48.130;-1.696;2023-04-06T12:39:05;4.73;;;2.30;;
17173;SDS011;8702;48.130;-1.696;2023-04-06T12:41:33;2.13;;;1.93;;
17173;SDS011;8702;48.130;-1.696;2023-04-06T12:44:00;7.03;;;2.20;;
17173;SDS011;8702;48.130;-1.696;2023-04-06T12:46:28;4.10;;;2.20;;
17173;SDS011;8702;48.130;-1.696;2023-04-06T12:48:56;3.60;;;2.10;;
17173;SDS011;8702;48.130;-1.696;2023-04-06T12:51:24;3.67;;;2.27;;
17173;SDS011;8702;48.130;-1.696;2023-04-06T12:53:52;4.27;;;2.40;;
17173;SDS011;8702;48.130;-1.696;2023-04-06T12:56:19;7.33;;;2.00;;
17173;SDS011;8702;48.130;-1.696;2023-04-06T12:58:49;4.70;;;1.40;;
17173;SDS011;8702;48.130;-1.696;2023-04-06T13:01:17;5.57;;;1.80;;
17173;SDS011;8702;48.130;-1.696;2023-04-06T13:03:45;3.73;;;1.40;;
17173;SDS011;8702;48.130;-1.696;2023-04-06T13:06:12;4.30;;;1.67;;
17173;SDS011;8702;48.130;-1.696;2023-04-06T13:08:40;2.47;;;1.40;;
17173;SDS011;8702;48.130;-1.696;2023-04-06T13:11:07;3.47;;;1.67;;
17173;SDS011;8702;48.130;-1.696;2023-04-06T13:13:34;6.20;;;1.93;;
17173;SDS011;8702;48.130;-1.696;2023-04-06T13:16:04;5.40;;;2.20;;
17173;SDS011;8702;48.130;-1.696;2023-04-06T13:18:33;5.90;;;1.70;;
17173;SDS011;8702;48.130;-1.696;2023-04-06T13:21:03;6.53;;;1.40;;
17173;SDS011;8702;48.130;-1.696;2023-04-06T13:23:30;3.80;;;1.37;;
17173;SDS011;8702;48.130;-1.696;2023-04-06T13:25:58;4.60;;;1.50;;
17173;SDS011;8702;48.130;-1.696;2023-04-06T13:28:26;3.43;;;1.30;;
17173;SDS011;8702;48.130;-1.696;2023-04-06T13:30:54;5.47;;;1.70;;
17173;SDS011;8702;48.130;-1.696;2023-04-06T13:33:23;2.97;;;1.10;;
17173;SDS011;8702;48.130;-1.696;2023-04-06T13:35:52;2.33;;;1.17;;
17173;SDS011;8702;48.130;-1.696;2023-04-06T13:38:20;2.97;;;1.20;;
17173;SDS011;8702;48.130;-1.696;2023-04-06T13:40:49;2.80;;;1.27;;
17173;SDS011;8702;48.130;-1.696;2023-04-06T13:43:16;6.87;;;1.50;;
17173;SDS011;8702;48.130;-1.696;2023-04-06T13:45:48;2.07;;;1.13;;
17173;SDS011;8702;48.130;-1.696;2023-04-06T13:48:19;4.10;;;1.60;;
17173;SDS011;8702;48.130;-1.696;2023-04-06T13:50:47;2.80;;;1.50;;
17173;SDS011;8702;48.130;-1.696;2023-04-06T13:53:14;5.57;;;1.97;;
17173;SDS011;8702;48.130;-1.696;2023-04-06T13:55:41;5.40;;;1.83;;
17173;SDS011;8702;48.130;-1.696;2023-04-06T13:58:08;3.97;;;1.57;;
17173;SDS011;8702;48.130;-1.696;2023-04-06T14:00:35;5.97;;;1.70;;
17173;SDS011;8702;48.130;-1.696;2023-04-06T14:03:03;3.90;;;1.60;;
17173;SDS011;8702;48.130;-1.696;2023-04-06T14:05:30;4.50;;;1.50;;
17173;SDS011;8702;48.130;-1.696;2023-04-06T14:07:59;8.47;;;1.97;;
17173;SDS011;8702;48.130;-1.696;2023-04-06T14:10:28;4.23;;;1.60;;
17173;SDS011;8702;48.130;-1.696;2023-04-06T14:12:55;4.23;;;1.27;;
17173;SDS011;8702;48.130;-1.696;2023-04-06T14:15:23;5.77;;;1.67;;
17173;SDS011;8702;48.130;-1.696;2023-04-06T14:17:50;4.70;;;2.00;;
17173;SDS011;8702;48.130;-1.696;2023-04-06T14:20:18;4.13;;;1.73;;
17173;SDS011;8702;48.130;-1.696;2023-04-06T14:22:45;7.10;;;2.20;;
17173;SDS011;8702;48.130;-1.696;2023-04-06T14:25:15;5.90;;;1.83;;
17173;SDS011;8702;48.130;-1.696;2023-04-06T14:27:43;8.90;;;2.30;;
17173;SDS011;8702;48.130;-1.696;2023-04-06T14:30:10;7.07;;;2.10;;
17173;SDS011;8702;48.130;-1.696;2023-04-06T14:32:38;4.50;;;2.03;;
17173;SDS011;8702;48.130;-1.696;2023-04-06T14:35:05;5.33;;;2.07;;
17173;SDS011;8702;48.130;-1.696;2023-04-06T14:37:33;8.33;;;2.07;;
17173;SDS011;8702;48.130;-1.696;2023-04-06T14:40:00;8.30;;;2.03;;
17173;SDS011;8702;48.130;-1.696;2023-04-06T14:42:29;5.37;;;1.73;;